03:47
Airports
History
Links
Donate
Help keep this website running!
PayPal
Bitcoin
This page is community maintained. The information is intended for PC simulator navigation or reference.
Always use approved charts for navigation.
1AZ9
Biosphere 2 Landing Field
Biosphere 2 Landing Field (1AZ9)
Tucson, Arizona, United States (85739)
4
Lat/Lng:32° 35' 4.26" N / 110° 51' 5.37" W
32.584517 / -110.851491
Elevation:3886'ft / 1184mMSL
ID / ICAO:1AZ9
Runways:1
Longest:06-24
Dirt 1,288m / 4,224ft
Nearby Weather02:59 GMT 2017-10-17
Nearby weather at KDMA, Davis Monthan Afb located 28.9 nautical miles from 1AZ9
Altimeter: 30.08
Visibility: 10.0 statute miles
Wind: 3 knots (from VRB°)
Temp: 28°c / 82°f
Humidity: 23.1%

METAR: KDMA 170259Z VRB03KT 10SM CLR 28/05 A3008 RMK AO2A SLPNO WND DATA ESTMD ALSTG/ESTMD $

(Powered by phpweather)
Nearby VORs <50NM
Nearby NDBs
Runway 06 / 24
Dimensions:1287.5 x 15.2m 4224' x 50'ft
Surface:Dirt
Runway 06 [A]Runway 24 [B]
Heading:071°TH 251°TH
Lat:
Lng:
32° 34' 57.78"N
110° 51' 29.05"W
32° 35' 10.74"N
110° 50' 41.68"W
User Notes and Comments
32° 35' 4.26" N / 110° 51' 5.37" W
Distance To
Airport ID:
Nearby Airports
(U) San Manuel 12.4 NM
E77 ENE 73°
(R) La Cholla Airpark 13.0 NM
57AZ SW 222°
(R) Twin Hawks Airpark 20.4 NM
AZ63 WSW 258°
(U) Marana Rgnl 24.6 NM
KAVQ WSW 240°
(C) Pinal Airpark 28.1 NM
KMZJ W 259°
(R) Davis Monthan Afb 28.9 NM
KDMA ( WX ) S 183°
(U) Kearny 32.1 NM
E67 N 354°
VFR Chart
Flight Planning at SkyVector.com